Time;durP1;ratioP1;P1;durP2;ratioP2;P2;SDS_P1;SDS_P2;PMS_P1;PMS_P2;Temp;Humidity;BMP_temperature;BMP_pressure;BME280_temperature;BME280_humidity;BME280_pressure;Samples;Min_cycle;Max_cycle;Signal;HPM_P1;HPM_P2
2022/05/03 00:00:15;;;;;;;8.75;6.70;;;7.90;99.90;;;;;;5042315;28;20049;-79
2022/05/03 00:03:20;;;;;;;10.38;7.55;;;7.90;99.90;;;;;;5049584;28;20068;-81
2022/05/03 00:06:29;;;;;;;9.88;7.53;;;7.90;99.90;;;;;;5030492;28;20133;-80
2022/05/03 00:09:05;;;;;;;;;;;7.90;99.90;;;;;;5036487;28;20072;-80
2022/05/03 00:11:40;;;;;;;8.52;7.13;;;7.80;99.90;;;;;;5013580;28;19964;-80
2022/05/03 00:14:19;;;;;;;9.00;6.75;;;7.80;99.90;;;;;;5044581;28;20033;-79
2022/05/03 00:16:48;;;;;;;8.75;6.95;;;7.70;99.90;;;;;;5022937;28;20485;-80
2022/05/03 00:19:14;;;;;;;8.80;6.97;;;7.70;99.90;;;;;;5034553;28;20116;-80
2022/05/03 00:21:41;;;;;;;8.32;6.50;;;7.70;99.90;;;;;;5011058;28;20073;-80
2022/05/03 00:24:07;;;;;;;9.05;7.00;;;7.70;99.90;;;;;;5041937;28;20120;-80
2022/05/03 00:26:34;;;;;;;10.88;7.47;;;7.70;99.90;;;;;;5043170;28;20540;-80
2022/05/03 00:29:01;;;;;;;9.52;6.85;;;7.80;99.90;;;;;;5036660;28;20061;-80
2022/05/03 00:31:28;;;;;;;8.25;7.30;;;7.70;99.90;;;;;;5032191;28;20084;-79
2022/05/03 00:33:54;;;;;;;9.93;7.82;;;7.70;99.90;;;;;;5018014;28;20095;-81
2022/05/03 00:36:21;;;;;;;8.48;7.13;;;7.50;99.90;;;;;;5040973;28;20041;-80
2022/05/03 00:38:47;;;;;;;;;;;7.50;99.90;;;;;;5037235;28;20049;-80
2022/05/03 00:41:27;;;;;;;10.13;7.53;;;7.40;99.90;;;;;;5036861;28;20020;-79
2022/05/03 00:44:55;;;;;;;10.07;7.57;;;7.40;99.90;;;;;;5039206;28;20127;-79
2022/05/03 00:46:55;;;;;;;10.85;8.50;;;7.40;99.90;;;;;;5034148;28;20057;-79
2022/05/03 00:49:28;;;;;;;10.57;8.38;;;7.30;99.90;;;;;;5022666;28;20424;-78
2022/05/03 00:52:00;;;;;;;10.73;8.88;;;7.30;99.90;;;;;;5036659;28;20052;-79
2022/05/03 00:55:00;;;;;;;9.52;8.38;;;7.30;99.90;;;;;;5043263;28;20037;-80
2022/05/03 00:57:39;;;;;;;10.80;9.00;;;7.30;99.90;;;;;;5025462;28;20124;-79
2022/05/03 01:00:09;;;;;;;11.20;8.50;;;7.20;99.90;;;;;;5047520;28;20052;-80
2022/05/03 01:02:59;;;;;;;12.40;8.55;;;7.20;99.90;;;;;;5044858;28;20037;-80
2022/05/03 01:05:38;;;;;;;10.35;8.25;;;7.20;99.90;;;;;;5041377;28;20080;-80
2022/05/03 01:08:07;;;;;;;10.10;8.27;;;7.10;99.90;;;;;;5043471;28;20507;-79
2022/05/03 01:11:08;;;;;;;11.30;9.13;;;7.10;99.90;;;;;;5045004;28;20048;-79
2022/05/03 01:13:41;;;;;;;10.15;8.40;;;7.00;99.90;;;;;;5039107;28;20084;-80
2022/05/03 01:16:34;;;;;;;10.90;8.18;;;7.00;99.90;;;;;;5043322;28;20405;-80
2022/05/03 01:19:08;;;;;;;10.80;8.82;;;7.00;99.90;;;;;;5038457;28;20127;-80
2022/05/03 01:21:33;;;;;;;9.60;7.20;;;7.00;99.90;;;;;;5035057;28;20033;-80
2022/05/03 01:24:36;;;;;;;19.30;7.88;;;7.00;99.90;;;;;;5026226;28;20454;-80
2022/05/03 01:27:33;;;;;;;9.77;7.90;;;6.90;99.90;;;;;;5039363;28;20115;-79
2022/05/03 01:30:02;;;;;;;9.40;7.75;;;6.80;99.90;;;;;;5049766;28;20497;-80
2022/05/03 01:32:31;;;;;;;12.55;8.60;;;6.80;99.90;;;;;;5035598;28;20093;-79
2022/05/03 01:34:57;;;;;;;12.38;8.60;;;6.80;99.90;;;;;;5052006;28;20037;-81
2022/05/03 01:37:33;;;;;;;;;;;6.80;99.90;;;;;;5035867;28;20037;-80
2022/05/03 01:40:12;;;;;;;10.13;8.45;;;6.80;99.90;;;;;;5050082;28;20373;-80
2022/05/03 01:42:43;;;;;;;11.68;9.10;;;6.80;99.90;;;;;;5032614;28;20493;-81
2022/05/03 01:45:10;;;;;;;12.05;9.10;;;6.70;99.90;;;;;;5050922;28;20044;-81
2022/05/03 01:47:56;;;;;;;12.98;9.13;;;6.60;99.90;;;;;;5051485;28;20041;-80
2022/05/03 01:50:28;;;;;;;11.57;9.60;;;6.50;99.90;;;;;;5050213;28;20075;-78
2022/05/03 01:53:00;;;;;;;9.82;8.15;;;6.50;99.90;;;;;;5035367;28;20033;-79
2022/05/03 01:56:10;;;;;;;10.68;9.15;;;6.50;99.90;;;;;;5052104;28;20047;-79
2022/05/03 01:58:45;;;;;;;11.68;8.75;;;6.50;99.90;;;;;;4978625;28;20989;-79
2022/05/03 02:01:39;;;;;;;9.65;7.97;;;6.50;99.90;;;;;;5027089;28;20516;-80
2022/05/03 02:04:14;;;;;;;11.70;9.25;;;6.50;99.90;;;;;;5050981;28;20091;-80
2022/05/03 02:07:08;;;;;;;11.15;9.02;;;6.50;99.90;;;;;;5049259;28;20044;-80
2022/05/03 02:10:03;;;;;;;11.10;8.95;;;6.50;99.90;;;;;;5051397;28;20112;-79
2022/05/03 02:12:29;;;;;;;10.75;9.20;;;6.40;99.90;;;;;;5044023;28;20033;-79
2022/05/03 02:15:07;;;;;;;12.40;9.95;;;6.40;99.90;;;;;;5034894;28;20065;-79
2022/05/03 02:17:52;;;;;;;13.43;9.65;;;6.40;99.90;;;;;;5035131;28;20086;-79
2022/05/03 02:20:36;;;;;;;11.55;9.43;;;6.40;99.90;;;;;;5041618;28;20045;-80
2022/05/03 02:23:17;;;;;;;14.40;10.40;;;6.50;99.90;;;;;;5049825;28;20044;-79
2022/05/03 02:26:08;;;;;;;13.18;10.35;;;6.40;99.90;;;;;;5032533;28;20074;-79
2022/05/03 02:28:45;;;;;;;11.60;9.35;;;6.40;99.90;;;;;;5054099;28;20412;-80
2022/05/03 02:31:27;;;;;;;13.25;10.15;;;6.40;99.90;;;;;;5052205;28;20037;-81
2022/05/03 02:33:55;;;;;;;10.90;9.73;;;6.40;99.90;;;;;;5052308;28;20048;-80
2022/05/03 02:36:25;;;;;;;11.77;10.02;;;6.40;99.90;;;;;;5054297;28;20483;-80
2022/05/03 02:38:58;;;;;;;12.07;10.00;;;6.50;99.90;;;;;;5042620;28;20097;-79
2022/05/03 02:41:26;;;;;;;11.20;9.73;;;6.40;99.90;;;;;;5045188;28;20045;-80
2022/05/03 02:43:52;;;;;;;12.05;10.20;;;6.80;99.90;;;;;;5054296;28;20117;-81
2022/05/03 02:46:37;;;;;;;12.18;10.10;;;6.50;99.90;;;;;;5053326;28;20471;-79
2022/05/03 02:49:04;;;;;;;12.60;10.50;;;6.60;99.90;;;;;;5068245;28;20105;-79
2022/05/03 02:51:56;;;;;;;13.15;11.73;;;6.90;99.90;;;;;;5053707;28;20171;-80
2022/05/03 02:54:21;;;;;;;13.55;11.57;;;6.70;99.90;;;;;;5050903;28;20037;-80
2022/05/03 02:57:04;;;;;;;14.00;11.27;;;6.80;99.90;;;;;;5053079;28;20407;-80
2022/05/03 03:02:57;;;;;;;14.13;11.90;;;6.90;99.90;;;;;;5067598;28;20052;-80
2022/05/03 03:05:26;;;;;;;16.20;12.60;;;6.90;99.90;;;;;;5037364;28;20028;-80
2022/05/03 03:08:01;;;;;;;15.95;11.68;;;6.90;99.90;;;;;;5052819;28;20496;-80
2022/05/03 03:11:04;;;;;;;13.05;11.65;;;7.00;99.90;;;;;;5035610;28;20041;-80
2022/05/03 03:13:49;;;;;;;14.85;11.93;;;7.00;99.90;;;;;;5027565;28;20041;-79
2022/05/03 03:16:26;;;;;;;15.05;11.27;;;7.60;99.90;;;;;;5043376;28;20095;-80
2022/05/03 03:18:52;;;;;;;13.68;10.98;;;7.10;99.90;;;;;;5046304;28;20393;-78
2022/05/03 03:21:24;;;;;;;15.32;11.32;;;7.50;99.90;;;;;;5037079;28;20047;-80
2022/05/03 03:23:52;;;;;;;14.52;11.88;;;7.10;99.90;;;;;;5046135;28;20065;-79
2022/05/03 03:26:20;;;;;;;14.32;12.15;;;7.00;99.90;;;;;;5051458;28;20507;-80
2022/05/03 03:28:47;;;;;;;15.85;12.43;;;6.90;99.90;;;;;;5049904;28;20045;-80
2022/05/03 03:31:15;;;;;;;14.35;10.65;;;7.00;99.90;;;;;;5053743;28;20049;-79
2022/05/03 03:33:41;;;;;;;13.60;10.27;;;7.00;99.90;;;;;;5053016;28;20032;-80
2022/05/03 03:36:08;;;;;;;;;;;7.40;99.90;;;;;;5049246;28;20044;-80
2022/05/03 03:38:43;;;;;;;13.50;11.57;;;6.90;99.90;;;;;;5051003;28;19916;-79
2022/05/03 03:41:09;;;;;;;14.13;11.32;;;7.30;99.90;;;;;;5050727;28;20041;-80
2022/05/03 03:43:35;;;;;;;13.70;11.07;;;6.80;99.90;;;;;;5050835;28;20054;-80
2022/05/03 03:46:01;;;;;;;14.40;11.15;;;6.90;99.90;;;;;;5035538;28;20040;-80
2022/05/03 03:48:26;;;;;;;14.68;12.43;;;6.90;99.90;;;;;;5049731;28;20045;-78
2022/05/03 03:50:55;;;;;;;14.38;11.60;;;7.10;99.90;;;;;;5052962;28;20044;-80
2022/05/03 03:53:21;;;;;;;15.75;11.13;;;7.00;99.90;;;;;;5034233;28;20040;-79
2022/05/03 03:55:49;;;;;;;13.60;10.93;;;7.10;99.90;;;;;;5047439;28;20052;-80
2022/05/03 03:58:15;;;;;;;14.75;12.40;;;7.10;99.90;;;;;;5035954;28;20496;-80
2022/05/03 04:00:41;;;;;;;16.48;12.45;;;7.00;99.90;;;;;;5049390;28;20044;-80
2022/05/03 04:03:07;;;;;;;13.40;11.82;;;7.10;99.90;;;;;;5033402;28;20033;-80
2022/05/03 04:05:35;;;;;;;15.32;12.48;;;7.10;99.90;;;;;;5052830;28;20123;-80
2022/05/03 04:08:01;;;;;;;14.90;12.68;;;7.10;99.90;;;;;;5052744;28;20040;-79
2022/05/03 04:10:27;;;;;;;16.85;12.07;;;7.10;99.90;;;;;;5050475;28;20037;-79
2022/05/03 04:12:52;;;;;;;15.77;13.23;;;7.20;99.90;;;;;;5034871;28;20063;-78
2022/05/03 04:15:18;;;;;;;16.73;13.20;;;7.20;99.90;;;;;;5050257;28;20101;-79
2022/05/03 04:17:45;;;;;;;18.77;13.10;;;7.30;99.90;;;;;;5051328;28;20290;-78
2022/05/03 04:20:12;;;;;;;15.15;12.40;;;7.30;99.90;;;;;;5049705;28;20033;-79
2022/05/03 04:22:38;;;;;;;16.42;13.52;;;7.30;99.90;;;;;;5033406;28;20047;-79
2022/05/03 04:25:04;;;;;;;16.17;13.43;;;7.30;99.90;;;;;;5050270;28;20397;-79
2022/05/03 04:27:30;;;;;;;16.15;13.32;;;7.30;99.90;;;;;;5036111;28;20846;-82
2022/05/03 04:29:56;;;;;;;16.67;12.93;;;7.40;99.90;;;;;;5032615;28;20053;-82
2022/05/03 04:32:22;;;;;;;18.88;13.95;;;7.40;99.90;;;;;;5032855;28;20077;-82
2022/05/03 04:34:49;;;;;;;16.33;13.20;;;7.40;99.90;;;;;;5036017;28;20086;-82
2022/05/03 04:37:14;;;;;;;16.85;13.80;;;7.40;99.90;;;;;;5052546;28;20032;-82
2022/05/03 04:39:41;;;;;;;16.55;13.50;;;7.50;99.90;;;;;;5032835;28;20408;-82
2022/05/03 04:42:08;;;;;;;16.38;13.93;;;7.50;99.90;;;;;;5050827;28;20037;-81
2022/05/03 04:44:34;;;;;;;17.85;13.23;;;7.50;99.90;;;;;;5052531;28;20029;-81
2022/05/03 04:46:59;;;;;;;16.77;14.05;;;7.70;99.90;;;;;;5049165;28;20064;-82
2022/05/03 04:49:25;;;;;;;17.00;13.77;;;7.60;99.90;;;;;;5032919;28;20037;-82
2022/05/03 04:51:51;;;;;;;18.05;14.55;;;7.60;99.90;;;;;;5035989;28;20063;-84
2022/05/03 04:54:16;;;;;;;20.00;15.80;;;7.80;99.90;;;;;;5052364;28;20408;-80
2022/05/03 04:57:00;;;;;;;22.00;15.57;;;8.10;99.90;;;;;;5053056;28;20369;-80
2022/05/03 04:59:26;;;;;;;20.27;15.35;;;7.70;99.90;;;;;;5034189;28;20322;-80
2022/05/03 05:01:51;;;;;;;17.77;14.93;;;7.80;99.90;;;;;;5049543;28;20041;-80
2022/05/03 05:04:17;;;;;;;20.38;15.77;;;7.80;99.90;;;;;;5051579;28;20049;-79
2022/05/03 05:06:43;;;;;;;20.70;15.60;;;7.90;99.90;;;;;;5050071;28;20539;-80
2022/05/03 05:09:09;;;;;;;21.05;15.93;;;7.90;99.90;;;;;;5035659;28;20094;-80
2022/05/03 05:11:34;;;;;;;19.55;15.50;;;8.00;99.90;;;;;;5033221;28;20469;-81
2022/05/03 05:14:00;;;;;;;22.23;16.60;;;8.00;99.90;;;;;;5044767;28;20028;-80
2022/05/03 05:16:25;;;;;;;21.30;16.07;;;8.00;99.90;;;;;;5041590;28;20291;-80
2022/05/03 05:18:51;;;;;;;19.60;15.50;;;8.10;99.90;;;;;;5032603;28;20044;-80
2022/05/03 05:21:17;;;;;;;20.37;16.70;;;8.10;99.90;;;;;;5039696;28;20040;-80
2022/05/03 05:23:43;;;;;;;23.02;16.42;;;8.10;99.90;;;;;;5024205;28;20111;-80
2022/05/03 05:26:09;;;;;;;19.67;15.70;;;8.10;99.90;;;;;;5042463;28;20150;-80
2022/05/03 05:28:34;;;;;;;20.83;15.77;;;8.10;99.90;;;;;;5050277;28;20053;-80
2022/05/03 05:31:00;;;;;;;20.67;15.00;;;8.20;99.90;;;;;;5060148;28;20044;-80
2022/05/03 05:33:26;;;;;;;18.90;15.50;;;8.20;99.90;;;;;;5032641;28;20280;-80
2022/05/03 05:35:52;;;;;;;23.80;16.15;;;8.20;99.90;;;;;;5034099;28;20051;-80
2022/05/03 05:38:19;;;;;;;25.85;17.40;;;8.20;99.90;;;;;;5049235;28;20049;-80
2022/05/03 05:40:46;;;;;;;25.42;18.48;;;8.30;99.90;;;;;;5051699;28;20111;-80
2022/05/03 05:43:13;;;;;;;25.08;18.20;;;8.30;99.90;;;;;;5054549;28;20032;-79
2022/05/03 05:45:38;;;;;;;;;;;8.30;99.90;;;;;;5038212;28;20037;-80
2022/05/03 05:48:05;;;;;;;25.60;17.83;;;8.30;99.90;;;;;;5071504;28;20380;-80
2022/05/03 05:50:31;;;;;;;28.63;18.58;;;8.30;99.90;;;;;;5038691;28;20041;-80
2022/05/03 05:55:42;;;;;;;28.05;19.42;;;8.40;99.90;;;;;;5069517;28;20151;-80
2022/05/03 05:58:09;;;;;;;31.90;20.95;;;8.40;99.90;;;;;;5034170;28;20046;-80
2022/05/03 06:00:34;;;;;;;33.13;21.33;;;8.50;99.90;;;;;;5037196;28;20504;-80
2022/05/03 06:03:01;;;;;;;32.35;21.73;;;8.50;99.90;;;;;;5053277;28;20040;-81
2022/05/03 06:05:27;;;;;;;34.35;22.92;;;8.60;99.90;;;;;;5045218;28;20162;-80
2022/05/03 06:07:53;;;;;;;36.53;23.58;;;9.20;99.90;;;;;;5047335;28;20123;-79
2022/05/03 06:10:23;;;;;;;37.95;24.20;;;8.70;99.90;;;;;;5033035;28;20119;-80
2022/05/03 06:12:49;;;;;;;38.17;24.95;;;8.80;99.90;;;;;;5028691;28;20044;-80
2022/05/03 06:15:16;;;;;;;36.40;23.38;;;8.90;99.90;;;;;;5045333;28;20029;-80
2022/05/03 06:17:42;;;;;;;39.33;25.08;;;8.90;99.90;;;;;;5047265;28;20388;-79
2022/05/03 06:20:08;;;;;;;34.97;23.20;;;8.90;99.90;;;;;;5019672;28;20032;-79
2022/05/03 06:22:34;;;;;;;38.60;26.10;;;9.00;99.90;;;;;;5050190;28;20284;-79
2022/05/03 06:25:00;;;;;;;36.28;24.35;;;9.40;99.90;;;;;;5036855;28;20473;-80
2022/05/03 06:27:26;;;;;;;39.33;25.40;;;9.10;99.90;;;;;;5052724;28;20542;-79
2022/05/03 06:29:51;;;;;;;40.22;23.88;;;9.10;99.90;;;;;;5054379;28;20096;-79
2022/05/03 06:32:17;;;;;;;35.07;21.07;;;9.10;99.90;;;;;;5052401;28;20044;-80
2022/05/03 06:34:43;;;;;;;36.27;20.80;;;9.80;99.90;;;;;;5038402;28;20279;-79
2022/05/03 06:37:08;;;;;;;35.63;13.93;;;9.20;99.90;;;;;;5053652;28;20033;-79
2022/05/03 06:39:37;;;;;;;23.17;12.30;;;9.20;99.90;;;;;;5052261;28;20283;-80
2022/05/03 06:42:06;;;;;;;26.33;12.00;;;9.20;99.90;;;;;;5054736;28;20115;-80
2022/05/03 06:44:33;;;;;;;18.08;9.82;;;9.20;99.90;;;;;;5035542;28;20040;-80
2022/05/03 06:46:58;;;;;;;22.27;8.10;;;9.20;99.90;;;;;;5052228;28;20116;-80
2022/05/03 06:49:24;;;;;;;15.00;6.07;;;9.20;99.90;;;;;;5035992;28;20544;-80
2022/05/03 06:51:50;;;;;;;10.50;5.03;;;9.10;99.90;;;;;;5052749;28;20032;-81
2022/05/03 06:54:16;;;;;;;11.85;4.65;;;9.20;99.90;;;;;;5054203;28;20033;-80
2022/05/03 06:56:41;;;;;;;10.45;4.60;;;9.20;99.90;;;;;;5052456;28;20028;-80
2022/05/03 06:59:07;;;;;;;10.57;4.13;;;9.20;99.90;;;;;;5050896;28;20036;-80
2022/05/03 07:01:33;;;;;;;10.30;4.75;;;9.20;99.90;;;;;;5053744;28;20112;-81
2022/05/03 07:03:59;;;;;;;18.63;5.13;;;9.20;99.90;;;;;;5053334;28;20044;-79
2022/05/03 07:06:25;;;;;;;15.35;5.15;;;9.20;99.90;;;;;;5036313;28;20044;-80
2022/05/03 07:08:51;;;;;;;12.98;5.15;;;9.20;99.90;;;;;;5050571;28;20073;-80
2022/05/03 07:11:17;;;;;;;16.60;5.30;;;9.30;99.90;;;;;;5052535;28;20033;-80
2022/05/03 07:13:43;;;;;;;15.18;5.43;;;9.30;99.90;;;;;;5034475;28;20044;-79
2022/05/03 07:16:09;;;;;;;12.88;4.85;;;9.40;99.90;;;;;;5051822;28;20166;-79
2022/05/03 07:24:03;;;;;;;14.98;5.57;;;9.40;99.90;;;;;;5048368;28;20097;-79
2022/05/03 07:26:30;;;;;;;17.45;5.80;;;9.30;99.90;;;;;;5043988;28;20040;-79
2022/05/03 07:28:56;;;;;;;16.50;6.40;;;9.20;99.90;;;;;;5034170;28;20416;-80
2022/05/03 07:31:23;;;;;;;19.20;6.13;;;9.30;99.90;;;;;;5053310;28;20052;-79
2022/05/03 07:33:49;;;;;;;16.73;5.72;;;9.30;99.90;;;;;;5052817;28;20044;-79
2022/05/03 07:36:15;;;;;;;20.55;6.00;;;9.30;99.90;;;;;;5034265;28;20062;-79
2022/05/03 07:38:41;;;;;;;;;;;9.40;99.90;;;;;;5046514;28;20107;-80
2022/05/03 07:41:07;;;;;;;15.55;5.82;;;9.40;99.90;;;;;;5067923;28;20001;-80
2022/05/03 07:43:34;;;;;;;20.23;5.88;;;9.50;99.90;;;;;;5034885;28;20137;-80
2022/05/03 07:46:01;;;;;;;17.40;5.43;;;9.60;99.90;;;;;;5052038;28;20123;-79
2022/05/03 07:48:27;;;;;;;19.92;6.00;;;9.70;99.90;;;;;;5043473;28;20053;-79
2022/05/03 07:50:52;;;;;;;21.75;5.57;;;9.80;99.90;;;;;;5034378;28;20115;-80
2022/05/03 07:53:18;;;;;;;17.02;5.40;;;9.70;99.90;;;;;;5036072;28;20111;-80
2022/05/03 07:55:45;;;;;;;16.38;5.10;;;9.80;99.90;;;;;;5051152;28;20121;-80
2022/05/03 07:58:11;;;;;;;14.48;4.90;;;9.90;99.90;;;;;;5048493;28;20047;-80
2022/05/03 08:00:36;;;;;;;24.87;5.37;;;9.80;99.90;;;;;;5035933;28;20036;-80
2022/05/03 08:03:02;;;;;;;19.20;5.05;;;9.90;99.90;;;;;;5042160;28;20337;-79
2022/05/03 08:05:28;;;;;;;18.45;4.80;;;9.90;99.90;;;;;;5043875;28;20124;-80
2022/05/03 08:07:54;;;;;;;19.23;5.13;;;10.00;99.90;;;;;;5050693;28;20044;-81
2022/05/03 08:10:20;;;;;;;12.98;4.03;;;10.00;99.90;;;;;;5034648;28;20037;-78
2022/05/03 08:12:50;;;;;;;16.88;4.60;;;10.10;99.90;;;;;;5051705;28;20040;-79
2022/05/03 08:15:17;;;;;;;17.70;4.30;;;10.10;99.90;;;;;;5050085;28;20076;-79
2022/05/03 08:17:44;;;;;;;18.35;4.55;;;10.10;99.90;;;;;;5034864;28;20093;-79
2022/05/03 08:20:09;;;;;;;20.83;4.90;;;10.20;99.90;;;;;;5049491;28;20061;-79
2022/05/03 08:22:35;;;;;;;11.00;4.32;;;10.20;99.90;;;;;;5053160;28;20552;-79
2022/05/03 08:25:01;;;;;;;13.03;4.13;;;10.20;99.90;;;;;;5051921;28;20170;-79
2022/05/03 08:27:27;;;;;;;15.30;4.72;;;10.20;99.90;;;;;;5051522;28;20461;-79
2022/05/03 08:29:53;;;;;;;18.17;4.25;;;10.30;99.90;;;;;;5050888;28;20055;-80
2022/05/03 08:32:19;;;;;;;15.95;3.67;;;10.20;99.90;;;;;;5052368;28;20791;-79
2022/05/03 08:34:45;;;;;;;11.77;3.85;;;10.30;99.90;;;;;;5035545;28;20098;-80
2022/05/03 08:42:39;;;;;;;14.20;3.95;;;10.40;99.90;;;;;;5048021;28;20128;-80
2022/05/03 08:45:05;;;;;;;;;;;10.40;99.90;;;;;;5051480;28;20535;-80
2022/05/03 08:47:32;;;;;;;11.70;3.60;;;10.40;99.90;;;;;;5068144;28;19916;-80
2022/05/03 08:50:08;;;;;;;11.93;3.13;;;10.30;99.90;;;;;;5052273;28;20032;-80
2022/05/03 08:53:04;;;;;;;14.73;3.20;;;10.40;99.90;;;;;;5036282;28;20068;-80
2022/05/03 08:55:30;;;;;;;19.73;4.18;;;10.40;99.90;;;;;;5018953;28;20784;-79
2022/05/03 08:57:56;;;;;;;18.30;3.72;;;10.50;99.90;;;;;;5047611;28;20124;-79
2022/05/03 09:00:23;;;;;;;13.13;3.10;;;10.50;99.90;;;;;;5051202;28;20492;-79
2022/05/03 09:02:51;;;;;;;;;;;10.50;99.90;;;;;;5052056;28;20087;-80
2022/05/03 09:05:18;;;;;;;15.60;3.25;;;10.60;99.90;;;;;;5040678;28;19982;-80
2022/05/03 09:07:56;;;;;;;17.83;3.88;;;10.70;99.90;;;;;;5024915;28;20489;-79
2022/05/03 09:10:23;;;;;;;12.07;3.20;;;10.80;99.90;;;;;;5056471;28;20055;-79
2022/05/03 09:12:50;;;;;;;13.15;3.45;;;10.80;99.90;;;;;;5051963;28;20086;-79
2022/05/03 09:15:32;;;;;;;16.48;3.72;;;10.90;99.90;;;;;;5042441;28;20032;-79
2022/05/03 09:17:59;;;;;;;13.85;3.30;;;10.90;99.90;;;;;;5043923;28;20052;-79
2022/05/03 09:26:26;;;;;;;13.27;3.70;;;10.90;99.90;;;;;;5054382;28;20459;-80
2022/05/03 09:29:11;;;;;;;13.52;3.08;;;11.00;99.90;;;;;;5044524;28;20110;-80
2022/05/03 09:31:47;;;;;;;13.15;2.92;;;11.00;99.90;;;;;;5048606;28;20070;-80
2022/05/03 09:34:27;;;;;;;16.60;3.10;;;11.20;99.90;;;;;;5038015;28;20476;-80
2022/05/03 09:37:04;;;;;;;10.35;2.38;;;11.40;99.90;;;;;;5051924;28;20111;-80
2022/05/03 09:39:37;;;;;;;11.00;2.47;;;11.50;99.90;;;;;;5037079;28;20526;-80
2022/05/03 09:42:16;;;;;;;11.10;2.78;;;11.60;99.90;;;;;;5036715;28;20564;-80
2022/05/03 09:45:00;;;;;;;16.50;3.17;;;11.60;99.90;;;;;;5053498;28;20040;-79
2022/05/03 09:47:27;;;;;;;10.18;2.75;;;11.80;99.90;;;;;;5053414;28;20049;-79
2022/05/03 09:49:53;;;;;;;;;;;11.70;99.90;;;;;;5054445;28;20036;-79
2022/05/03 09:52:33;;;;;;;8.93;2.20;;;11.80;99.90;;;;;;5055014;28;20047;-79
2022/05/03 09:55:10;;;;;;;8.15;2.20;;;11.90;99.90;;;;;;5043822;28;20037;-79
2022/05/03 09:57:41;;;;;;;13.25;2.35;;;11.90;99.90;;;;;;5043494;28;20048;-79
2022/05/03 10:00:09;;;;;;;11.85;2.72;;;12.20;99.90;;;;;;5047557;28;20040;-80
2022/05/03 10:02:40;;;;;;;7.90;2.22;;;12.30;99.90;;;;;;5045598;28;20405;-79
2022/05/03 10:05:07;;;;;;;9.60;2.20;;;12.50;99.90;;;;;;5050432;28;20045;-79
2022/05/03 10:07:35;;;;;;;4.18;1.90;;;12.60;99.90;;;;;;5052387;28;20043;-79
2022/05/03 10:10:07;;;;;;;9.52;2.35;;;12.70;99.90;;;;;;5046182;28;20126;-79
2022/05/03 10:12:36;;;;;;;8.32;2.22;;;12.60;99.90;;;;;;5031872;28;20061;-78
2022/05/03 10:15:03;;;;;;;6.95;2.25;;;13.00;99.90;;;;;;5048084;28;20090;-80
2022/05/03 10:20:42;;;;;;;7.72;1.88;;;13.20;99.90;;;;;;5052140;28;20041;-79
2022/05/03 10:23:24;;;;;;;7.63;2.17;;;13.40;99.90;;;;;;5028584;28;20429;-79
2022/05/03 10:25:52;;;;;;;6.57;1.95;;;13.60;99.90;;;;;;5038063;28;20040;-80
2022/05/03 10:28:18;;;;;;;6.78;1.88;;;13.70;99.90;;;;;;5051525;28;20033;-80
2022/05/03 10:31:06;;;;;;;5.90;1.80;;;13.90;99.90;;;;;;5044779;28;20048;-79
2022/05/03 10:33:31;;;;;;;;;;;14.10;99.90;;;;;;5052925;28;20037;-79
2022/05/03 10:36:01;;;;;;;6.57;1.90;;;14.30;99.90;;;;;;5053906;28;20406;-79
2022/05/03 10:38:43;;;;;;;6.75;1.92;;;14.30;99.90;;;;;;5052712;28;20047;-78
2022/05/03 10:41:10;;;;;;;6.35;2.00;;;13.70;99.90;;;;;;5051386;28;20086;-79
2022/05/03 10:43:38;;;;;;;6.53;2.03;;;13.90;99.90;;;;;;5044903;28;20404;-79
2022/05/03 10:46:18;;;;;;;7.20;1.80;;;13.70;99.90;;;;;;5037142;28;20036;-80
2022/05/03 10:49:02;;;;;;;5.30;1.60;;;13.80;99.90;;;;;;5051640;28;20684;-80
2022/05/03 10:51:29;;;;;;;6.22;1.73;;;14.10;99.90;;;;;;5048289;28;20428;-80
2022/05/03 10:54:00;;;;;;;7.63;1.55;;;14.50;99.90;;;;;;5062326;28;20102;-79
2022/05/03 10:56:26;;;;;;;4.03;1.42;;;14.80;99.90;;;;;;5054240;28;20898;-79
2022/05/03 10:59:16;;;;;;;9.48;1.83;;;14.70;99.90;;;;;;5052415;28;20158;-80
2022/05/03 11:01:55;;;;;;;6.85;1.60;;;14.20;99.90;;;;;;5060976;28;20045;-79
2022/05/03 11:04:22;;;;;;;5.85;1.70;;;14.10;99.90;;;;;;5059756;28;20079;-79
2022/05/03 11:06:49;;;;;;;4.78;1.58;;;14.20;99.90;;;;;;5050571;28;20068;-79
2022/05/03 11:09:30;;;;;;;5.70;1.10;;;14.20;99.90;;;;;;5052680;28;20064;-78
2022/05/03 11:11:58;;;;;;;7.95;1.40;;;14.00;99.90;;;;;;5050892;28;20053;-79
2022/05/03 11:14:24;;;;;;;5.20;1.30;;;14.10;99.90;;;;;;5053694;28;20047;-78
2022/05/03 11:17:05;;;;;;;8.63;1.48;;;14.20;99.90;;;;;;5039320;28;20036;-78
2022/05/03 11:19:38;;;;;;;4.93;1.40;;;14.40;99.90;;;;;;5045715;28;20048;-78
2022/05/03 11:22:15;;;;;;;6.97;1.70;;;14.50;99.90;;;;;;5044115;28;20076;-80
2022/05/03 11:24:42;;;;;;;;;;;14.60;99.90;;;;;;5051310;28;20044;-79
2022/05/03 11:27:12;;;;;;;5.38;1.42;;;14.80;99.90;;;;;;5053394;28;20084;-79
2022/05/03 11:29:41;;;;;;;10.45;1.77;;;14.80;99.90;;;;;;5054026;28;20079;-79
2022/05/03 11:32:08;;;;;;;8.02;1.33;;;14.80;99.90;;;;;;5034164;28;21510;-79
2022/05/03 11:34:35;;;;;;;4.32;1.33;;;15.00;99.90;;;;;;5051485;28;20052;-79
2022/05/03 11:37:03;;;;;;;7.25;1.45;;;14.90;99.90;;;;;;5035430;28;20032;-79
2022/05/03 11:39:29;;;;;;;4.57;1.25;;;15.00;99.90;;;;;;5035736;28;20101;-79
2022/05/03 11:41:55;;;;;;;5.57;1.40;;;15.30;99.90;;;;;;5053698;28;20037;-79
2022/05/03 11:44:21;;;;;;;9.07;1.30;;;15.50;99.90;;;;;;5051326;28;20051;-79
2022/05/03 11:46:48;;;;;;;4.95;1.25;;;15.50;99.90;;;;;;5036791;28;20400;-79
2022/05/03 11:49:16;;;;;;;4.85;1.20;;;15.30;99.90;;;;;;5044649;28;20619;-79
2022/05/03 11:57:20;;;;;;;5.47;1.48;;;15.00;99.90;;;;;;5064223;28;20152;-78
2022/05/03 11:59:46;;;;;;;5.82;1.70;;;14.90;99.90;;;;;;5036928;28;20366;-78
2022/05/03 12:02:19;;;;;;;4.93;1.40;;;14.90;99.90;;;;;;5052779;28;20076;-78
2022/05/03 12:05:05;;;;;;;5.50;1.15;;;15.10;99.90;;;;;;5033652;28;20036;-78
2022/05/03 12:07:54;;;;;;;4.43;1.45;;;15.50;99.90;;;;;;5049681;28;20127;-79
2022/05/03 12:10:23;;;;;;;3.42;1.08;;;16.10;99.90;;;;;;5025906;28;20044;-78
2022/05/03 12:13:12;;;;;;;10.18;1.45;;;16.50;99.90;;;;;;5066391;28;20040;-78
2022/05/03 12:15:41;;;;;;;3.95;1.05;;;16.70;99.90;;;;;;5035499;28;20038;-78
2022/05/03 12:18:18;;;;;;;5.38;1.40;;;16.40;99.50;;;;;;5052469;28;20048;-78
2022/05/03 12:20:57;;;;;;;5.07;1.30;;;16.40;99.70;;;;;;5030843;28;20125;-78
2022/05/03 12:23:30;;;;;;;4.32;1.20;;;16.30;99.40;;;;;;5046949;28;20037;-78
2022/05/03 12:25:57;;;;;;;4.93;1.30;;;16.50;99.60;;;;;;5049539;28;20045;-79
2022/05/03 12:28:37;;;;;;;4.18;1.55;;;16.40;99.90;;;;;;5050196;28;20392;-78
2022/05/03 12:31:05;;;;;;;7.53;1.33;;;16.10;98.90;;;;;;5052337;28;20049;-78
2022/05/03 12:33:32;;;;;;;6.75;1.63;;;15.60;99.20;;;;;;5035700;28;20071;-78
2022/05/03 12:35:59;;;;;;;5.63;1.58;;;15.70;99.20;;;;;;5053029;28;20045;-78
2022/05/03 12:38:25;;;;;;;;;;;15.60;99.10;;;;;;5049814;28;20045;-78
2022/05/03 12:40:56;;;;;;;7.10;1.45;;;15.40;99.10;;;;;;5061973;28;20311;-78
2022/05/03 12:43:23;;;;;;;5.85;1.50;;;15.70;99.10;;;;;;5038204;28;20354;-78
2022/05/03 12:46:04;;;;;;;5.78;1.42;;;15.80;99.70;;;;;;5045222;28;20102;-77
2022/05/03 12:48:32;;;;;;;4.80;1.50;;;16.10;99.10;;;;;;5042419;28;20147;-77
2022/05/03 12:50:58;;;;;;;6.78;1.80;;;16.00;98.80;;;;;;5051958;28;20080;-77
2022/05/03 12:53:30;;;;;;;5.40;1.38;;;16.00;98.70;;;;;;5046152;28;20045;-77
2022/05/03 12:58:21;;;;;;;9.80;1.73;;;15.50;99.40;;;;;;5046354;28;20041;-79
2022/05/03 12:58:43;;;;;;;6.60;1.38;;;15.30;99.40;;;;;;5046821;28;20119;-78
2022/05/03 13:01:11;;;;;;;7.75;1.95;;;15.30;99.90;;;;;;5023689;28;20625;-78
2022/05/03 13:03:40;;;;;;;4.60;1.42;;;15.10;99.50;;;;;;5048954;28;20049;-77
2022/05/03 13:06:05;;;;;;;5.80;1.58;;;15.10;99.70;;;;;;5043826;28;20047;-78
2022/05/03 13:08:31;;;;;;;5.63;1.50;;;15.10;99.90;;;;;;5043538;28;20037;-77
2022/05/03 13:11:00;;;;;;;7.93;1.75;;;15.00;99.90;;;;;;5046494;28;20374;-78
2022/05/03 13:13:26;;;;;;;4.63;1.70;;;15.10;99.90;;;;;;5054210;28;20029;-77
2022/05/03 13:15:52;;;;;;;9.95;1.58;;;15.30;99.90;;;;;;5036330;28;20508;-78
2022/05/03 13:18:18;;;;;;;8.10;1.98;;;15.50;99.90;;;;;;5052967;28;20041;-79
2022/05/03 13:20:43;;;;;;;5.95;1.45;;;15.20;99.60;;;;;;5053262;28;20063;-78
2022/05/03 13:23:14;;;;;;;13.27;1.63;;;15.30;99.90;;;;;;5054081;28;20492;-77
2022/05/03 13:25:40;;;;;;;6.57;1.52;;;15.20;99.90;;;;;;5052427;28;20191;-79
2022/05/03 13:28:06;;;;;;;4.35;1.13;;;15.20;99.60;;;;;;5038903;28;20124;-79
2022/05/03 13:30:32;;;;;;;5.95;1.55;;;15.00;99.90;;;;;;5055411;28;20384;-78
2022/05/03 13:32:59;;;;;;;6.78;1.50;;;15.00;99.90;;;;;;5054250;28;20044;-77
2022/05/03 13:41:02;;;;;;;7.55;1.80;;;15.60;99.30;;;;;;5056012;28;20090;-78